Lincoln, DE (19960)

10:57 AM EST on February 06, 2016 (GMT -0500)
APRSWXNET | | Change Station
CLOSE
Current Station
Personal Weather Station
Location: Ellendale, DE
Elevation: 36 ft
Nearby Weather Stations

Elev 36 ft 38.83 °N, 75.32 °W | Updated 28 minutes ago

Mostly Cloudy
Mostly Cloudy
40 °F
Feels Like 40 °F
N
3
Wind Variable Wind from SSE
Gusts 9.0 mph

Today
High -- | Low -- °F
--% Chance of Precip.
Yesterday
High -- | Low -- °F
Precip. -- in
Pressure 30.47 in
Visibility 10.0 miles
Clouds Clear
Windchill 40 °F
Dew Point 28 °F
Humidity 63%
Rainfall in
Snow Depth Not available.
7:03 AM 5:28 PM
Waning Crescent, 5% visible
METAR KGED 061454Z AUTO 00000KT 10SM CLR 02/M04 A3047 RMK AO2 SLP318 T00221039 50008
Pressure 30.47 in
Visibility 10.0 miles
Clouds Clear
Windchill 40 °F
Dew Point 28 °F
Humidity 63%
Rainfall in
Snow Depth Not available.
7:03 AM 5:28 PM
Waning Crescent, 5% visible
METAR KGED 061454Z AUTO 00000KT 10SM CLR 02/M04 A3047 RMK AO2 SLP318 T00221039 50008

10-Day Weather Forecast

Almanac

Astronomy

Feb. 06, 2016 Rise Set
Actual Time
Civil Twilight
Nautical Twilight
Astronomical Twilight
Moon
Length of Visible Light
Length of Day
Tomorrow will be .
, % of the Moon is Illuminated

Today's Extremes

State Highs State Lows

Community

WunderPhotos

Upload Photos

1,890,987 photos uploaded!

WunderBlog® & News

Nearby

Air Quality

  Air Quality AQ Index Pollutant
Not available.

Snow Depth

Station Depth Elevation

Earthquake Activity

City Distance Mag. Time & Date
Minimum magnitude displayed is 2.5.

Coastal Water Temperatures

Place Temperature

Stations

Nearby Weather Stations

Station Location Temp. Windchill Dew Point Humidity Wind Precip. Elev Updated Type
                   

Watches & Warnings

There are currently no watches in effect.